sensor_id;sensor_type;location;lat;lon;timestamp;P1;durP1;ratioP1;P2;durP2;ratioP2
20369;SDS011;10344;47.592;9.600;2023-10-31T00:00:17;1.20;;;0.80;;
20369;SDS011;10344;47.592;9.600;2023-10-31T00:02:43;0.70;;;0.60;;
20369;SDS011;10344;47.592;9.600;2023-10-31T00:05:11;0.43;;;0.43;;
20369;SDS011;10344;47.592;9.600;2023-10-31T00:07:37;0.60;;;0.60;;
20369;SDS011;10344;47.592;9.600;2023-10-31T00:10:02;0.52;;;0.52;;
20369;SDS011;10344;47.592;9.600;2023-10-31T00:12:32;0.95;;;0.70;;
20369;SDS011;10344;47.592;9.600;2023-10-31T00:14:57;0.63;;;0.50;;
20369;SDS011;10344;47.592;9.600;2023-10-31T00:17:25;0.50;;;0.40;;
20369;SDS011;10344;47.592;9.600;2023-10-31T00:19:53;0.80;;;0.50;;
20369;SDS011;10344;47.592;9.600;2023-10-31T00:22:18;0.60;;;0.40;;
20369;SDS011;10344;47.592;9.600;2023-10-31T00:24:44;0.65;;;0.60;;
20369;SDS011;10344;47.592;9.600;2023-10-31T00:27:12;0.90;;;0.50;;
20369;SDS011;10344;47.592;9.600;2023-10-31T00:29:40;0.38;;;0.38;;
20369;SDS011;10344;47.592;9.600;2023-10-31T00:32:06;0.80;;;0.70;;
20369;SDS011;10344;47.592;9.600;2023-10-31T00:34:34;0.47;;;0.47;;
20369;SDS011;10344;47.592;9.600;2023-10-31T00:37:02;0.60;;;0.60;;
20369;SDS011;10344;47.592;9.600;2023-10-31T00:39:28;0.50;;;0.50;;
20369;SDS011;10344;47.592;9.600;2023-10-31T00:41:53;0.60;;;0.60;;
20369;SDS011;10344;47.592;9.600;2023-10-31T00:44:19;0.60;;;0.60;;
20369;SDS011;10344;47.592;9.600;2023-10-31T00:46:47;0.43;;;0.43;;
20369;SDS011;10344;47.592;9.600;2023-10-31T00:49:15;0.40;;;0.40;;
20369;SDS011;10344;47.592;9.600;2023-10-31T00:51:45;0.47;;;0.47;;
20369;SDS011;10344;47.592;9.600;2023-10-31T00:54:10;0.68;;;0.60;;
20369;SDS011;10344;47.592;9.600;2023-10-31T00:56:41;0.82;;;0.60;;
20369;SDS011;10344;47.592;9.600;2023-10-31T00:59:10;1.00;;;0.70;;
20369;SDS011;10344;47.592;9.600;2023-10-31T01:01:38;1.20;;;0.50;;
20369;SDS011;10344;47.592;9.600;2023-10-31T01:04:04;0.80;;;0.80;;
20369;SDS011;10344;47.592;9.600;2023-10-31T01:06:32;1.13;;;0.75;;
20369;SDS011;10344;47.592;9.600;2023-10-31T01:08:58;1.33;;;1.00;;
20369;SDS011;10344;47.592;9.600;2023-10-31T01:11:23;1.53;;;0.67;;
20369;SDS011;10344;47.592;9.600;2023-10-31T01:13:51;0.70;;;0.70;;
20369;SDS011;10344;47.592;9.600;2023-10-31T01:16:19;0.90;;;0.90;;
20369;SDS011;10344;47.592;9.600;2023-10-31T01:18:47;1.60;;;0.70;;
20369;SDS011;10344;47.592;9.600;2023-10-31T01:21:12;1.27;;;0.70;;
20369;SDS011;10344;47.592;9.600;2023-10-31T01:23:38;1.05;;;0.80;;
20369;SDS011;10344;47.592;9.600;2023-10-31T01:26:06;0.70;;;0.70;;
20369;SDS011;10344;47.592;9.600;2023-10-31T01:28:32;1.00;;;0.90;;
20369;SDS011;10344;47.592;9.600;2023-10-31T01:30:57;0.70;;;0.70;;
20369;SDS011;10344;47.592;9.600;2023-10-31T01:33:23;0.90;;;0.60;;
20369;SDS011;10344;47.592;9.600;2023-10-31T01:35:48;0.83;;;0.80;;
20369;SDS011;10344;47.592;9.600;2023-10-31T01:38:14;0.63;;;0.50;;
20369;SDS011;10344;47.592;9.600;2023-10-31T01:40:42;1.40;;;0.90;;
20369;SDS011;10344;47.592;9.600;2023-10-31T01:43:08;0.70;;;0.60;;
20369;SDS011;10344;47.592;9.600;2023-10-31T01:45:33;0.90;;;0.43;;
20369;SDS011;10344;47.592;9.600;2023-10-31T01:48:01;0.60;;;0.57;;
20369;SDS011;10344;47.592;9.600;2023-10-31T01:50:30;0.65;;;0.55;;
20369;SDS011;10344;47.592;9.600;2023-10-31T01:52:58;0.60;;;0.60;;
20369;SDS011;10344;47.592;9.600;2023-10-31T01:55:24;0.53;;;0.50;;
20369;SDS011;10344;47.592;9.600;2023-10-31T01:57:52;0.47;;;0.47;;
20369;SDS011;10344;47.592;9.600;2023-10-31T02:00:19;1.33;;;0.63;;
20369;SDS011;10344;47.592;9.600;2023-10-31T02:02:47;1.20;;;0.60;;
20369;SDS011;10344;47.592;9.600;2023-10-31T02:05:13;0.40;;;0.40;;
20369;SDS011;10344;47.592;9.600;2023-10-31T02:07:40;0.60;;;0.50;;
20369;SDS011;10344;47.592;9.600;2023-10-31T02:10:10;1.70;;;0.50;;
20369;SDS011;10344;47.592;9.600;2023-10-31T02:12:36;0.65;;;0.45;;
20369;SDS011;10344;47.592;9.600;2023-10-31T02:15:02;0.80;;;0.50;;
20369;SDS011;10344;47.592;9.600;2023-10-31T02:17:29;0.45;;;0.45;;
20369;SDS011;10344;47.592;9.600;2023-10-31T02:19:57;0.68;;;0.60;;
20369;SDS011;10344;47.592;9.600;2023-10-31T02:22:23;1.07;;;1.07;;
20369;SDS011;10344;47.592;9.600;2023-10-31T02:24:48;0.50;;;0.50;;
20369;SDS011;10344;47.592;9.600;2023-10-31T02:27:16;0.63;;;0.60;;
20369;SDS011;10344;47.592;9.600;2023-10-31T02:29:44;0.40;;;0.40;;
20369;SDS011;10344;47.592;9.600;2023-10-31T02:32:10;0.40;;;0.40;;
20369;SDS011;10344;47.592;9.600;2023-10-31T02:34:36;0.50;;;0.50;;
20369;SDS011;10344;47.592;9.600;2023-10-31T02:37:01;0.40;;;0.40;;
20369;SDS011;10344;47.592;9.600;2023-10-31T02:39:27;0.45;;;0.45;;
20369;SDS011;10344;47.592;9.600;2023-10-31T02:41:55;0.50;;;0.50;;
20369;SDS011;10344;47.592;9.600;2023-10-31T02:44:21;0.30;;;0.30;;
20369;SDS011;10344;47.592;9.600;2023-10-31T02:46:46;0.43;;;0.43;;
20369;SDS011;10344;47.592;9.600;2023-10-31T02:49:12;0.40;;;0.40;;
20369;SDS011;10344;47.592;9.600;2023-10-31T02:51:42;1.30;;;0.30;;
20369;SDS011;10344;47.592;9.600;2023-10-31T02:54:10;0.52;;;0.45;;
20369;SDS011;10344;47.592;9.600;2023-10-31T02:56:36;0.30;;;0.30;;
20369;SDS011;10344;47.592;9.600;2023-10-31T02:59:02;1.20;;;0.60;;
20369;SDS011;10344;47.592;9.600;2023-10-31T03:01:30;0.70;;;0.50;;
20369;SDS011;10344;47.592;9.600;2023-10-31T03:03:55;0.35;;;0.30;;
20369;SDS011;10344;47.592;9.600;2023-10-31T03:06:21;0.57;;;0.57;;
20369;SDS011;10344;47.592;9.600;2023-10-31T03:08:49;0.40;;;0.40;;
20369;SDS011;10344;47.592;9.600;2023-10-31T03:11:21;0.50;;;0.50;;
20369;SDS011;10344;47.592;9.600;2023-10-31T03:13:50;0.40;;;0.40;;
20369;SDS011;10344;47.592;9.600;2023-10-31T03:16:21;0.68;;;0.57;;
20369;SDS011;10344;47.592;9.600;2023-10-31T03:18:50;0.50;;;0.50;;
20369;SDS011;10344;47.592;9.600;2023-10-31T03:21:15;0.35;;;0.35;;
20369;SDS011;10344;47.592;9.600;2023-10-31T03:23:46;0.50;;;0.50;;
20369;SDS011;10344;47.592;9.600;2023-10-31T03:26:17;0.90;;;0.70;;
20369;SDS011;10344;47.592;9.600;2023-10-31T03:28:44;0.70;;;0.70;;
20369;SDS011;10344;47.592;9.600;2023-10-31T03:31:10;1.75;;;0.90;;
20369;SDS011;10344;47.592;9.600;2023-10-31T03:33:36;0.40;;;0.40;;
20369;SDS011;10344;47.592;9.600;2023-10-31T03:36:02;0.50;;;0.50;;
20369;SDS011;10344;47.592;9.600;2023-10-31T03:38:28;0.80;;;0.70;;
20369;SDS011;10344;47.592;9.600;2023-10-31T03:40:56;0.50;;;0.50;;
20369;SDS011;10344;47.592;9.600;2023-10-31T03:43:23;0.60;;;0.60;;
20369;SDS011;10344;47.592;9.600;2023-10-31T03:45:49;0.40;;;0.40;;
20369;SDS011;10344;47.592;9.600;2023-10-31T03:48:16;0.68;;;0.60;;
20369;SDS011;10344;47.592;9.600;2023-10-31T03:50:44;1.43;;;0.50;;
20369;SDS011;10344;47.592;9.600;2023-10-31T03:53:14;0.60;;;0.60;;
20369;SDS011;10344;47.592;9.600;2023-10-31T03:55:40;0.40;;;0.40;;
20369;SDS011;10344;47.592;9.600;2023-10-31T03:58:08;1.25;;;0.50;;
20369;SDS011;10344;47.592;9.600;2023-10-31T04:00:33;0.70;;;0.60;;
20369;SDS011;10344;47.592;9.600;2023-10-31T04:02:59;0.80;;;0.40;;
20369;SDS011;10344;47.592;9.600;2023-10-31T04:05:27;0.80;;;0.80;;
20369;SDS011;10344;47.592;9.600;2023-10-31T04:07:53;0.60;;;0.60;;
20369;SDS011;10344;47.592;9.600;2023-10-31T04:10:20;0.60;;;0.60;;
20369;SDS011;10344;47.592;9.600;2023-10-31T04:12:46;0.70;;;0.70;;
20369;SDS011;10344;47.592;9.600;2023-10-31T04:15:12;1.30;;;0.60;;
20369;SDS011;10344;47.592;9.600;2023-10-31T04:17:43;0.70;;;0.70;;
20369;SDS011;10344;47.592;9.600;2023-10-31T04:20:09;0.60;;;0.60;;
20369;SDS011;10344;47.592;9.600;2023-10-31T04:22:37;0.80;;;0.70;;
20369;SDS011;10344;47.592;9.600;2023-10-31T04:25:03;0.98;;;0.85;;
20369;SDS011;10344;47.592;9.600;2023-10-31T04:27:29;0.85;;;0.50;;
20369;SDS011;10344;47.592;9.600;2023-10-31T04:29:55;0.77;;;0.63;;
20369;SDS011;10344;47.592;9.600;2023-10-31T04:32:20;1.03;;;0.80;;
20369;SDS011;10344;47.592;9.600;2023-10-31T04:34:49;1.20;;;0.67;;
20369;SDS011;10344;47.592;9.600;2023-10-31T04:37:14;0.77;;;0.77;;
20369;SDS011;10344;47.592;9.600;2023-10-31T04:39:40;0.68;;;0.55;;
20369;SDS011;10344;47.592;9.600;2023-10-31T04:42:07;0.80;;;0.60;;
20369;SDS011;10344;47.592;9.600;2023-10-31T04:44:33;0.60;;;0.60;;
20369;SDS011;10344;47.592;9.600;2023-10-31T04:46:59;0.73;;;0.70;;
20369;SDS011;10344;47.592;9.600;2023-10-31T04:49:27;1.27;;;0.60;;
20369;SDS011;10344;47.592;9.600;2023-10-31T04:51:57;1.40;;;0.80;;
20369;SDS011;10344;47.592;9.600;2023-10-31T04:54:25;0.73;;;0.60;;
20369;SDS011;10344;47.592;9.600;2023-10-31T04:56:51;1.17;;;1.08;;
20369;SDS011;10344;47.592;9.600;2023-10-31T04:59:16;0.82;;;0.70;;
20369;SDS011;10344;47.592;9.600;2023-10-31T05:01:50;1.45;;;0.73;;
20369;SDS011;10344;47.592;9.600;2023-10-31T05:04:17;0.85;;;0.70;;
20369;SDS011;10344;47.592;9.600;2023-10-31T05:06:43;2.28;;;0.60;;
20369;SDS011;10344;47.592;9.600;2023-10-31T05:09:11;0.68;;;0.68;;
20369;SDS011;10344;47.592;9.600;2023-10-31T05:11:38;1.80;;;0.83;;
20369;SDS011;10344;47.592;9.600;2023-10-31T05:14:04;0.95;;;0.50;;
20369;SDS011;10344;47.592;9.600;2023-10-31T05:16:39;0.83;;;0.83;;
20369;SDS011;10344;47.592;9.600;2023-10-31T05:19:05;0.88;;;0.68;;
20369;SDS011;10344;47.592;9.600;2023-10-31T05:21:33;1.73;;;0.60;;
20369;SDS011;10344;47.592;9.600;2023-10-31T05:24:01;0.70;;;0.70;;
20369;SDS011;10344;47.592;9.600;2023-10-31T05:26:32;2.30;;;0.63;;
20369;SDS011;10344;47.592;9.600;2023-10-31T05:29:00;0.80;;;0.60;;
20369;SDS011;10344;47.592;9.600;2023-10-31T05:31:26;1.03;;;0.70;;
20369;SDS011;10344;47.592;9.600;2023-10-31T05:33:54;0.93;;;0.52;;
20369;SDS011;10344;47.592;9.600;2023-10-31T05:36:20;0.90;;;0.70;;
20369;SDS011;10344;47.592;9.600;2023-10-31T05:38:50;1.33;;;0.77;;
20369;SDS011;10344;47.592;9.600;2023-10-31T05:41:16;0.60;;;0.60;;
20369;SDS011;10344;47.592;9.600;2023-10-31T05:43:44;1.00;;;0.70;;
20369;SDS011;10344;47.592;9.600;2023-10-31T05:46:10;0.85;;;0.80;;
20369;SDS011;10344;47.592;9.600;2023-10-31T05:48:38;0.60;;;0.60;;
20369;SDS011;10344;47.592;9.600;2023-10-31T05:51:05;0.90;;;0.60;;
20369;SDS011;10344;47.592;9.600;2023-10-31T05:53:40;1.15;;;0.80;;
20369;SDS011;10344;47.592;9.600;2023-10-31T05:56:09;1.33;;;0.60;;
20369;SDS011;10344;47.592;9.600;2023-10-31T05:58:39;1.33;;;0.90;;
20369;SDS011;10344;47.592;9.600;2023-10-31T06:01:05;0.77;;;0.77;;
20369;SDS011;10344;47.592;9.600;2023-10-31T06:03:35;0.73;;;0.68;;
20369;SDS011;10344;47.592;9.600;2023-10-31T06:06:05;1.35;;;0.80;;
20369;SDS011;10344;47.592;9.600;2023-10-31T06:08:31;1.00;;;0.80;;
20369;SDS011;10344;47.592;9.600;2023-10-31T06:10:57;1.07;;;0.70;;
20369;SDS011;10344;47.592;9.600;2023-10-31T06:13:27;1.20;;;0.80;;
20369;SDS011;10344;47.592;9.600;2023-10-31T06:15:53;0.80;;;0.80;;
20369;SDS011;10344;47.592;9.600;2023-10-31T06:18:19;2.80;;;0.90;;
20369;SDS011;10344;47.592;9.600;2023-10-31T06:20:47;1.25;;;0.70;;
20369;SDS011;10344;47.592;9.600;2023-10-31T06:23:13;1.00;;;0.70;;
20369;SDS011;10344;47.592;9.600;2023-10-31T06:25:44;0.70;;;0.70;;
20369;SDS011;10344;47.592;9.600;2023-10-31T06:28:09;0.60;;;0.60;;
20369;SDS011;10344;47.592;9.600;2023-10-31T06:30:37;0.85;;;0.70;;
20369;SDS011;10344;47.592;9.600;2023-10-31T06:33:05;1.10;;;0.82;;
20369;SDS011;10344;47.592;9.600;2023-10-31T06:35:32;0.75;;;0.75;;
20369;SDS011;10344;47.592;9.600;2023-10-31T06:37:58;0.80;;;0.80;;
20369;SDS011;10344;47.592;9.600;2023-10-31T06:40:24;1.20;;;0.63;;
20369;SDS011;10344;47.592;9.600;2023-10-31T06:42:53;1.63;;;0.80;;
20369;SDS011;10344;47.592;9.600;2023-10-31T06:45:19;2.07;;;0.87;;
20369;SDS011;10344;47.592;9.600;2023-10-31T06:47:44;1.50;;;1.30;;
20369;SDS011;10344;47.592;9.600;2023-10-31T06:50:10;1.27;;;1.00;;
20369;SDS011;10344;47.592;9.600;2023-10-31T06:52:36;2.20;;;1.20;;
20369;SDS011;10344;47.592;9.600;2023-10-31T06:55:01;1.40;;;0.90;;
20369;SDS011;10344;47.592;9.600;2023-10-31T06:57:27;0.65;;;0.60;;
20369;SDS011;10344;47.592;9.600;2023-10-31T06:59:53;1.70;;;0.70;;
20369;SDS011;10344;47.592;9.600;2023-10-31T07:02:21;1.10;;;1.00;;
20369;SDS011;10344;47.592;9.600;2023-10-31T07:04:47;1.87;;;0.70;;
20369;SDS011;10344;47.592;9.600;2023-10-31T07:07:12;1.37;;;0.70;;
20369;SDS011;10344;47.592;9.600;2023-10-31T07:09:40;1.80;;;1.00;;
20369;SDS011;10344;47.592;9.600;2023-10-31T07:12:06;1.67;;;0.80;;
20369;SDS011;10344;47.592;9.600;2023-10-31T07:14:32;2.92;;;0.90;;
20369;SDS011;10344;47.592;9.600;2023-10-31T07:16:58;1.37;;;0.87;;
20369;SDS011;10344;47.592;9.600;2023-10-31T07:19:28;2.33;;;0.73;;
20369;SDS011;10344;47.592;9.600;2023-10-31T07:21:54;3.40;;;1.10;;
20369;SDS011;10344;47.592;9.600;2023-10-31T07:24:20;1.63;;;0.80;;
20369;SDS011;10344;47.592;9.600;2023-10-31T07:26:47;1.50;;;0.70;;
20369;SDS011;10344;47.592;9.600;2023-10-31T07:29:15;2.38;;;0.93;;
20369;SDS011;10344;47.592;9.600;2023-10-31T07:31:41;0.80;;;0.73;;
20369;SDS011;10344;47.592;9.600;2023-10-31T07:34:06;2.33;;;0.90;;
20369;SDS011;10344;47.592;9.600;2023-10-31T07:36:33;0.80;;;0.57;;
20369;SDS011;10344;47.592;9.600;2023-10-31T07:39:01;1.15;;;0.80;;
20369;SDS011;10344;47.592;9.600;2023-10-31T07:41:27;1.77;;;0.88;;
20369;SDS011;10344;47.592;9.600;2023-10-31T07:43:53;2.80;;;0.90;;
20369;SDS011;10344;47.592;9.600;2023-10-31T07:46:18;2.27;;;0.90;;
20369;SDS011;10344;47.592;9.600;2023-10-31T07:48:44;0.80;;;0.60;;
20369;SDS011;10344;47.592;9.600;2023-10-31T07:51:12;2.03;;;0.98;;
20369;SDS011;10344;47.592;9.600;2023-10-31T07:53:37;1.45;;;0.80;;
20369;SDS011;10344;47.592;9.600;2023-10-31T07:56:05;2.08;;;0.73;;
20369;SDS011;10344;47.592;9.600;2023-10-31T07:58:43;1.30;;;0.80;;
20369;SDS011;10344;47.592;9.600;2023-10-31T08:01:09;2.65;;;0.90;;
20369;SDS011;10344;47.592;9.600;2023-10-31T08:03:38;1.50;;;0.90;;
20369;SDS011;10344;47.592;9.600;2023-10-31T08:06:05;1.17;;;0.90;;
20369;SDS011;10344;47.592;9.600;2023-10-31T08:08:33;1.33;;;0.75;;
20369;SDS011;10344;47.592;9.600;2023-10-31T08:11:07;0.87;;;0.70;;
20369;SDS011;10344;47.592;9.600;2023-10-31T08:13:34;2.83;;;0.90;;
20369;SDS011;10344;47.592;9.600;2023-10-31T08:16:04;1.38;;;0.82;;
20369;SDS011;10344;47.592;9.600;2023-10-31T08:18:30;1.00;;;0.68;;
20369;SDS011;10344;47.592;9.600;2023-10-31T08:20:59;0.73;;;0.70;;
20369;SDS011;10344;47.592;9.600;2023-10-31T08:23:30;1.35;;;0.73;;
20369;SDS011;10344;47.592;9.600;2023-10-31T08:26:00;1.57;;;0.90;;
20369;SDS011;10344;47.592;9.600;2023-10-31T08:28:28;1.23;;;0.90;;
20369;SDS011;10344;47.592;9.600;2023-10-31T08:30:54;1.67;;;0.80;;
20369;SDS011;10344;47.592;9.600;2023-10-31T08:33:19;1.05;;;0.77;;
20369;SDS011;10344;47.592;9.600;2023-10-31T08:35:45;2.15;;;0.80;;
20369;SDS011;10344;47.592;9.600;2023-10-31T08:38:13;1.38;;;0.88;;
20369;SDS011;10344;47.592;9.600;2023-10-31T08:40:38;2.47;;;0.70;;
20369;SDS011;10344;47.592;9.600;2023-10-31T08:43:06;1.30;;;0.70;;
20369;SDS011;10344;47.592;9.600;2023-10-31T08:45:32;2.28;;;0.82;;
20369;SDS011;10344;47.592;9.600;2023-10-31T08:48:01;2.90;;;1.10;;
20369;SDS011;10344;47.592;9.600;2023-10-31T08:50:29;2.28;;;1.10;;
20369;SDS011;10344;47.592;9.600;2023-10-31T08:52:57;1.23;;;0.90;;
20369;SDS011;10344;47.592;9.600;2023-10-31T08:55:22;1.42;;;0.85;;
20369;SDS011;10344;47.592;9.600;2023-10-31T08:57:48;2.08;;;0.80;;
20369;SDS011;10344;47.592;9.600;2023-10-31T09:00:14;2.17;;;1.00;;
20369;SDS011;10344;47.592;9.600;2023-10-31T09:02:42;2.17;;;0.85;;
20369;SDS011;10344;47.592;9.600;2023-10-31T09:05:08;1.40;;;0.90;;
20369;SDS011;10344;47.592;9.600;2023-10-31T09:07:34;1.37;;;0.83;;
20369;SDS011;10344;47.592;9.600;2023-10-31T09:10:00;1.80;;;0.90;;
20369;SDS011;10344;47.592;9.600;2023-10-31T09:12:28;2.20;;;0.90;;
20369;SDS011;10344;47.592;9.600;2023-10-31T09:14:54;1.80;;;0.90;;
20369;SDS011;10344;47.592;9.600;2023-10-31T09:17:19;2.70;;;1.17;;
20369;SDS011;10344;47.592;9.600;2023-10-31T09:19:45;1.70;;;1.00;;
20369;SDS011;10344;47.592;9.600;2023-10-31T09:22:13;3.17;;;1.27;;
20369;SDS011;10344;47.592;9.600;2023-10-31T09:24:39;1.13;;;1.00;;
20369;SDS011;10344;47.592;9.600;2023-10-31T09:27:05;1.60;;;1.10;;
20369;SDS011;10344;47.592;9.600;2023-10-31T09:29:30;2.70;;;1.00;;
20369;SDS011;10344;47.592;9.600;2023-10-31T09:32:01;0.90;;;0.82;;
20369;SDS011;10344;47.592;9.600;2023-10-31T09:34:27;1.20;;;0.80;;
20369;SDS011;10344;47.592;9.600;2023-10-31T09:36:52;2.23;;;0.93;;
20369;SDS011;10344;47.592;9.600;2023-10-31T09:39:18;1.17;;;1.00;;
20369;SDS011;10344;47.592;9.600;2023-10-31T09:41:43;1.77;;;0.67;;
20369;SDS011;10344;47.592;9.600;2023-10-31T09:44:09;2.50;;;1.00;;
20369;SDS011;10344;47.592;9.600;2023-10-31T09:46:37;1.13;;;0.73;;
20369;SDS011;10344;47.592;9.600;2023-10-31T09:49:06;1.77;;;1.20;;
20369;SDS011;10344;47.592;9.600;2023-10-31T09:51:33;2.35;;;0.85;;
20369;SDS011;10344;47.592;9.600;2023-10-31T09:53:59;1.23;;;0.60;;
20369;SDS011;10344;47.592;9.600;2023-10-31T09:56:28;2.20;;;0.95;;
20369;SDS011;10344;47.592;9.600;2023-10-31T09:58:59;0.80;;;0.80;;
20369;SDS011;10344;47.592;9.600;2023-10-31T10:01:25;1.63;;;1.00;;
20369;SDS011;10344;47.592;9.600;2023-10-31T10:03:51;2.15;;;1.40;;
20369;SDS011;10344;47.592;9.600;2023-10-31T10:06:18;1.95;;;0.95;;
20369;SDS011;10344;47.592;9.600;2023-10-31T10:08:46;1.67;;;0.80;;
20369;SDS011;10344;47.592;9.600;2023-10-31T10:11:12;1.45;;;1.00;;
20369;SDS011;10344;47.592;9.600;2023-10-31T10:13:37;1.48;;;0.90;;
20369;SDS011;10344;47.592;9.600;2023-10-31T10:16:04;3.63;;;1.90;;
20369;SDS011;10344;47.592;9.600;2023-10-31T10:18:33;1.05;;;0.80;;
20369;SDS011;10344;47.592;9.600;2023-10-31T10:21:03;1.60;;;1.40;;
20369;SDS011;10344;47.592;9.600;2023-10-31T10:23:30;3.10;;;1.13;;
20369;SDS011;10344;47.592;9.600;2023-10-31T10:25:58;3.07;;;2.27;;
20369;SDS011;10344;47.592;9.600;2023-10-31T10:28:26;5.15;;;3.05;;
20369;SDS011;10344;47.592;9.600;2023-10-31T10:30:54;2.50;;;1.95;;
20369;SDS011;10344;47.592;9.600;2023-10-31T10:33:20;3.20;;;2.15;;
20369;SDS011;10344;47.592;9.600;2023-10-31T10:35:46;2.78;;;2.03;;
20369;SDS011;10344;47.592;9.600;2023-10-31T10:38:18;2.95;;;2.30;;
20369;SDS011;10344;47.592;9.600;2023-10-31T10:40:47;2.47;;;1.80;;
20369;SDS011;10344;47.592;9.600;2023-10-31T10:45:55;1.83;;;1.20;;
20369;SDS011;10344;47.592;9.600;2023-10-31T10:48:24;2.70;;;1.33;;
20369;SDS011;10344;47.592;9.600;2023-10-31T10:51:25;1.93;;;1.03;;
20369;SDS011;10344;47.592;9.600;2023-10-31T10:53:57;1.75;;;1.10;;
20369;SDS011;10344;47.592;9.600;2023-10-31T10:56:30;3.28;;;1.30;;
20369;SDS011;10344;47.592;9.600;2023-10-31T10:59:03;2.63;;;1.20;;
20369;SDS011;10344;47.592;9.600;2023-10-31T11:01:36;1.20;;;1.10;;
20369;SDS011;10344;47.592;9.600;2023-10-31T11:04:03;1.95;;;0.85;;
20369;SDS011;10344;47.592;9.600;2023-10-31T11:06:34;1.10;;;1.00;;
20369;SDS011;10344;47.592;9.600;2023-10-31T11:09:02;1.80;;;1.08;;
20369;SDS011;10344;47.592;9.600;2023-10-31T11:11:31;1.65;;;1.10;;
20369;SDS011;10344;47.592;9.600;2023-10-31T11:13:57;2.20;;;2.03;;
20369;SDS011;10344;47.592;9.600;2023-10-31T11:16:30;1.40;;;1.30;;
20369;SDS011;10344;47.592;9.600;2023-10-31T11:19:04;1.23;;;1.13;;
20369;SDS011;10344;47.592;9.600;2023-10-31T11:21:30;1.40;;;1.23;;
20369;SDS011;10344;47.592;9.600;2023-10-31T11:23:59;1.77;;;1.02;;
20369;SDS011;10344;47.592;9.600;2023-10-31T11:26:28;3.00;;;1.80;;
20369;SDS011;10344;47.592;9.600;2023-10-31T11:29:05;3.38;;;1.70;;
20369;SDS011;10344;47.592;9.600;2023-10-31T11:31:37;1.13;;;0.80;;
20369;SDS011;10344;47.592;9.600;2023-10-31T11:34:03;0.60;;;0.60;;
20369;SDS011;10344;47.592;9.600;2023-10-31T11:36:31;1.92;;;0.85;;
20369;SDS011;10344;47.592;9.600;2023-10-31T11:39:17;2.88;;;2.00;;
20369;SDS011;10344;47.592;9.600;2023-10-31T11:41:49;3.05;;;1.80;;
20369;SDS011;10344;47.592;9.600;2023-10-31T11:44:17;2.28;;;1.00;;
20369;SDS011;10344;47.592;9.600;2023-10-31T11:46:49;1.15;;;0.93;;
20369;SDS011;10344;47.592;9.600;2023-10-31T11:49:19;1.20;;;0.70;;
20369;SDS011;10344;47.592;9.600;2023-10-31T11:52:18;2.00;;;0.70;;
20369;SDS011;10344;47.592;9.600;2023-10-31T11:54:44;1.27;;;1.00;;
20369;SDS011;10344;47.592;9.600;2023-10-31T11:57:10;0.75;;;0.73;;
20369;SDS011;10344;47.592;9.600;2023-10-31T11:59:41;0.73;;;0.60;;
20369;SDS011;10344;47.592;9.600;2023-10-31T12:02:14;1.85;;;0.80;;
20369;SDS011;10344;47.592;9.600;2023-10-31T12:04:41;3.28;;;0.90;;
20369;SDS011;10344;47.592;9.600;2023-10-31T12:07:11;1.25;;;0.70;;
20369;SDS011;10344;47.592;9.600;2023-10-31T12:09:46;1.83;;;0.85;;
20369;SDS011;10344;47.592;9.600;2023-10-31T12:12:13;0.70;;;0.68;;
20369;SDS011;10344;47.592;9.600;2023-10-31T12:14:41;0.70;;;0.70;;
20369;SDS011;10344;47.592;9.600;2023-10-31T12:17:06;1.17;;;1.07;;
20369;SDS011;10344;47.592;9.600;2023-10-31T12:19:35;2.00;;;1.30;;
20369;SDS011;10344;47.592;9.600;2023-10-31T12:22:11;1.95;;;1.27;;
20369;SDS011;10344;47.592;9.600;2023-10-31T12:24:38;2.10;;;0.88;;
20369;SDS011;10344;47.592;9.600;2023-10-31T12:27:04;1.67;;;0.90;;
20369;SDS011;10344;47.592;9.600;2023-10-31T12:29:32;1.08;;;0.95;;
20369;SDS011;10344;47.592;9.600;2023-10-31T12:31:57;1.33;;;0.93;;
20369;SDS011;10344;47.592;9.600;2023-10-31T12:34:24;2.42;;;1.63;;
20369;SDS011;10344;47.592;9.600;2023-10-31T12:36:51;2.85;;;2.25;;
20369;SDS011;10344;47.592;9.600;2023-10-31T12:39:24;2.83;;;1.13;;
20369;SDS011;10344;47.592;9.600;2023-10-31T12:41:54;1.20;;;0.77;;
20369;SDS011;10344;47.592;9.600;2023-10-31T12:44:26;1.02;;;0.82;;
20369;SDS011;10344;47.592;9.600;2023-10-31T12:46:54;0.80;;;0.75;;
20369;SDS011;10344;47.592;9.600;2023-10-31T12:49:23;2.00;;;1.10;;
20369;SDS011;10344;47.592;9.600;2023-10-31T12:51:59;1.00;;;0.90;;
20369;SDS011;10344;47.592;9.600;2023-10-31T12:56:58;3.10;;;2.70;;
20369;SDS011;10344;47.592;9.600;2023-10-31T12:59:27;2.58;;;1.20;;
20369;SDS011;10344;47.592;9.600;2023-10-31T13:01:55;2.10;;;1.40;;
20369;SDS011;10344;47.592;9.600;2023-10-31T13:04:27;1.20;;;1.10;;
20369;SDS011;10344;47.592;9.600;2023-10-31T13:06:57;2.00;;;1.00;;
20369;SDS011;10344;47.592;9.600;2023-10-31T13:09:29;1.23;;;1.10;;
20369;SDS011;10344;47.592;9.600;2023-10-31T13:12:04;1.20;;;1.05;;
20369;SDS011;10344;47.592;9.600;2023-10-31T13:14:30;1.35;;;1.10;;
20369;SDS011;10344;47.592;9.600;2023-10-31T13:16:59;1.33;;;1.13;;
20369;SDS011;10344;47.592;9.600;2023-10-31T13:19:27;2.35;;;1.40;;
20369;SDS011;10344;47.592;9.600;2023-10-31T13:21:55;1.80;;;1.40;;
20369;SDS011;10344;47.592;9.600;2023-10-31T13:24:23;2.00;;;1.52;;
20369;SDS011;10344;47.592;9.600;2023-10-31T13:26:49;1.88;;;1.60;;
20369;SDS011;10344;47.592;9.600;2023-10-31T13:29:17;1.77;;;1.30;;
20369;SDS011;10344;47.592;9.600;2023-10-31T13:31:43;1.30;;;1.10;;
20369;SDS011;10344;47.592;9.600;2023-10-31T13:34:09;1.00;;;0.87;;
20369;SDS011;10344;47.592;9.600;2023-10-31T13:36:35;1.20;;;1.00;;
20369;SDS011;10344;47.592;9.600;2023-10-31T13:39:03;1.27;;;1.05;;
20369;SDS011;10344;47.592;9.600;2023-10-31T13:41:34;1.88;;;1.20;;
20369;SDS011;10344;47.592;9.600;2023-10-31T13:44:02;2.15;;;1.48;;
20369;SDS011;10344;47.592;9.600;2023-10-31T13:46:30;3.30;;;1.20;;
20369;SDS011;10344;47.592;9.600;2023-10-31T13:48:56;2.00;;;1.38;;
20369;SDS011;10344;47.592;9.600;2023-10-31T13:51:21;2.00;;;1.27;;
20369;SDS011;10344;47.592;9.600;2023-10-31T13:53:47;2.05;;;1.02;;
20369;SDS011;10344;47.592;9.600;2023-10-31T13:56:17;1.55;;;0.70;;
20369;SDS011;10344;47.592;9.600;2023-10-31T13:58:43;0.60;;;0.60;;
20369;SDS011;10344;47.592;9.600;2023-10-31T14:01:09;1.40;;;0.70;;
20369;SDS011;10344;47.592;9.600;2023-10-31T14:03:35;0.88;;;0.70;;
20369;SDS011;10344;47.592;9.600;2023-10-31T14:06:03;1.38;;;0.95;;
20369;SDS011;10344;47.592;9.600;2023-10-31T14:08:29;1.83;;;0.90;;
20369;SDS011;10344;47.592;9.600;2023-10-31T14:10:54;0.90;;;0.60;;
20369;SDS011;10344;47.592;9.600;2023-10-31T14:13:24;1.27;;;0.90;;
20369;SDS011;10344;47.592;9.600;2023-10-31T14:15:49;0.60;;;0.60;;
20369;SDS011;10344;47.592;9.600;2023-10-31T14:18:15;2.00;;;0.80;;
20369;SDS011;10344;47.592;9.600;2023-10-31T14:20:40;1.50;;;0.60;;
20369;SDS011;10344;47.592;9.600;2023-10-31T14:23:06;2.63;;;0.90;;
20369;SDS011;10344;47.592;9.600;2023-10-31T14:25:32;0.77;;;0.77;;
20369;SDS011;10344;47.592;9.600;2023-10-31T14:28:00;1.25;;;0.60;;
20369;SDS011;10344;47.592;9.600;2023-10-31T14:30:26;0.60;;;0.60;;
20369;SDS011;10344;47.592;9.600;2023-10-31T14:32:54;1.50;;;0.90;;
20369;SDS011;10344;47.592;9.600;2023-10-31T14:35:20;1.13;;;0.65;;
20369;SDS011;10344;47.592;9.600;2023-10-31T14:37:50;2.10;;;0.80;;
20369;SDS011;10344;47.592;9.600;2023-10-31T14:40:16;0.73;;;0.60;;
20369;SDS011;10344;47.592;9.600;2023-10-31T14:42:41;1.60;;;0.80;;
20369;SDS011;10344;47.592;9.600;2023-10-31T14:45:09;3.72;;;0.88;;
20369;SDS011;10344;47.592;9.600;2023-10-31T14:47:37;1.07;;;0.90;;
20369;SDS011;10344;47.592;9.600;2023-10-31T14:50:05;0.70;;;0.60;;
20369;SDS011;10344;47.592;9.600;2023-10-31T14:52:31;1.20;;;0.90;;
20369;SDS011;10344;47.592;9.600;2023-10-31T14:54:57;2.53;;;0.80;;